createdAt,value
2018-12-19T00:00:20.453Z,32.1
2018-12-19T00:01:11.091Z,32
2018-12-19T00:02:00.866Z,31.9
2018-12-19T00:02:50.918Z,31.9
2018-12-19T00:03:40.774Z,32
2018-12-19T00:04:31.025Z,31.9
2018-12-19T00:05:21.114Z,31.9
2018-12-19T00:06:10.584Z,31.9
2018-12-19T00:07:01.535Z,31.9
2018-12-19T00:07:51.541Z,31.9
2018-12-19T00:08:41.049Z,31.9
2018-12-19T00:09:30.303Z,31.8
2018-12-19T00:10:20.911Z,31.8
2018-12-19T00:11:11.226Z,31.8
2018-12-19T00:12:00.998Z,31.8
2018-12-19T00:12:51.881Z,31.8
2018-12-19T00:13:41.726Z,31.8
2018-12-19T00:14:31.433Z,31.8
2018-12-19T00:32:37.757Z,31.4
2018-12-19T00:33:28.329Z,31.4
2018-12-19T00:34:18.651Z,31.4
2018-12-19T00:35:08.150Z,31.4
2018-12-19T00:35:57.933Z,31.4
2018-12-19T00:36:48.249Z,31.4
2018-12-19T00:37:38.591Z,31.3
2018-12-19T00:38:28.641Z,31.3
2018-12-19T00:39:19.731Z,31.3
2018-12-19T00:40:08.227Z,31.3
2018-12-19T00:40:58.819Z,31.3
2018-12-19T00:41:48.606Z,31.3
2018-12-19T00:42:39.710Z,31.3
2018-12-19T00:43:28.971Z,31.3
2018-12-19T00:44:18.752Z,31.3
2018-12-19T00:45:08.816Z,31.2
2018-12-19T00:45:58.610Z,31.2
2018-12-19T00:46:49.456Z,31.2
2018-12-19T00:47:39.563Z,31.2
2018-12-19T00:48:29.063Z,31.2
2018-12-19T00:49:19.117Z,31.1
2018-12-19T00:50:08.643Z,31.1
2018-12-19T00:50:58.943Z,31.1
2018-12-19T00:51:49.903Z,31.1
2018-12-19T00:52:39.831Z,31.1
2018-12-19T00:53:29.691Z,31.1
2018-12-19T00:54:19.249Z,31.1
2018-12-19T00:55:09.795Z,31.1
2018-12-19T00:55:59.605Z,31.1
2018-12-19T00:56:49.688Z,31
2018-12-19T00:57:39.948Z,31
2018-12-19T00:58:30.296Z,31
2018-12-19T00:59:20.073Z,31
2018-12-19T01:00:10.473Z,30.9
2018-12-19T01:00:59.345Z,30.9
2018-12-19T01:01:50.237Z,30.9
2018-12-19T01:02:40.010Z,30.9
2018-12-19T01:03:30.321Z,30.9
2018-12-19T01:04:20.400Z,30.9
2018-12-19T01:05:10.759Z,30.9
2018-12-19T01:06:00.016Z,30.9
2018-12-19T01:06:50.031Z,30.9
2018-12-19T01:07:41.406Z,30.9
2018-12-19T01:08:30.745Z,30.9
2018-12-19T01:09:20.755Z,30.8
2018-12-19T01:10:10.652Z,30.8
2018-12-19T01:11:00.395Z,30.8
2018-12-19T01:11:50.230Z,30.8
2018-12-19T01:12:40.512Z,30.8
2018-12-19T01:13:30.729Z,30.8
2018-12-19T01:14:21.097Z,30.8
2018-12-19T01:15:10.897Z,30.8
2018-12-19T01:16:00.947Z,30.8
2018-12-19T01:16:51.321Z,30.7
2018-12-19T01:17:41.350Z,30.7
2018-12-19T01:18:31.091Z,30.7
2018-12-19T01:19:20.618Z,30.7
2018-12-19T01:20:12.122Z,30.7
2018-12-19T01:21:01.620Z,30.7
2018-12-19T01:21:51.354Z,30.7
2018-12-19T01:22:41.184Z,30.6
2018-12-19T01:23:31.699Z,30.6
2018-12-19T01:24:21.782Z,30.6
2018-12-19T01:25:12.174Z,30.6
2018-12-19T01:26:01.046Z,30.6
2018-12-19T01:26:51.651Z,30.6
2018-12-19T01:27:41.733Z,30.6
2018-12-19T01:28:32.049Z,30.6
2018-12-19T01:29:22.159Z,30.6
2018-12-19T01:30:12.486Z,30.6
2018-12-19T01:31:02.246Z,30.5
2018-12-19T01:31:52.012Z,30.5
2018-12-19T01:32:42.366Z,30.4
2018-12-19T01:33:32.951Z,30.5
2018-12-19T01:34:22.436Z,30.5
2018-12-19T01:35:12.514Z,30.5
2018-12-19T01:36:02.830Z,30.5
2018-12-19T01:36:52.638Z,30.4
2018-12-19T01:37:42.411Z,30.4
2018-12-19T01:38:33.018Z,30.4
2018-12-19T01:39:28.281Z,30.4
2018-12-19T01:40:12.334Z,30.4
2018-12-19T01:41:02.646Z,30.4
2018-12-19T01:41:52.692Z,30.4
2018-12-19T01:42:43.033Z,30.4
2018-12-19T01:43:33.398Z,30.4
2018-12-19T01:44:22.666Z,30.4
2018-12-19T01:45:12.916Z,30.3
2018-12-19T01:46:03.558Z,30.3
2018-12-19T01:46:53.318Z,30.3
2018-12-19T01:47:43.360Z,30.3
2018-12-19T01:48:33.450Z,30.3
2018-12-19T01:49:23.208Z,30.3
2018-12-19T01:50:13.512Z,30.3
2018-12-19T01:51:03.285Z,30.3
2018-12-19T01:51:53.445Z,30.3
2018-12-19T01:52:43.172Z,30.3
2018-12-19T01:53:32.678Z,30.3
2018-12-19T01:54:23.250Z,30.3
2018-12-19T01:55:13.874Z,30.3
2018-12-19T01:56:03.932Z,30.3
2018-12-19T01:56:53.997Z,30.2
2018-12-19T01:57:44.055Z,30.2
2018-12-19T01:58:34.454Z,30.2
2018-12-19T01:59:23.395Z,30.2
2018-12-19T02:00:14.510Z,30.1
2018-12-19T02:01:03.980Z,30.1
2018-12-19T02:01:54.362Z,30.1
2018-12-19T02:02:44.664Z,30.2
2018-12-19T02:03:34.972Z,30.1
2018-12-19T02:04:24.514Z,30.1
2018-12-19T02:05:13.997Z,30.1
2018-12-19T02:06:04.067Z,30.1
2018-12-19T02:06:54.633Z,30.1
2018-12-19T02:07:44.727Z,30.1
2018-12-19T02:08:34.789Z,30.1
2018-12-19T02:09:31.154Z,30.1
2018-12-19T02:10:14.353Z,30.1
2018-12-19T02:11:04.986Z,30.1
2018-12-19T02:11:55.284Z,30
2018-12-19T02:12:45.143Z,30.1
2018-12-19T02:13:35.159Z,30
2018-12-19T02:14:24.632Z,30
2018-12-19T02:15:14.964Z,30
2018-12-19T02:16:05.563Z,30
2018-12-19T02:16:55.854Z,30
2018-12-19T02:17:45.222Z,30
2018-12-19T02:18:35.188Z,30
2018-12-19T02:19:24.413Z,30
2018-12-19T02:20:14.250Z,29.9
2018-12-19T02:21:05.093Z,29.9
2018-12-19T02:21:55.981Z,29.9
2018-12-19T02:22:45.478Z,30
2018-12-19T02:23:35.535Z,29.9
2018-12-19T02:24:25.832Z,29.9
2018-12-19T02:25:15.385Z,29.9
2018-12-19T02:26:05.434Z,29.9
2018-12-19T02:26:56.330Z,29.9
2018-12-19T02:27:45.550Z,29.9
2018-12-19T02:28:35.597Z,29.9
2018-12-19T02:29:25.705Z,29.9
2018-12-19T02:30:15.819Z,29.9
2018-12-19T02:31:06.381Z,29.8
2018-12-19T02:31:56.175Z,29.8
2018-12-19T02:32:45.642Z,29.8
2018-12-19T02:33:36.235Z,29.8
2018-12-19T02:34:26.280Z,29.8
2018-12-19T02:35:16.632Z,29.8
2018-12-19T02:36:07.009Z,29.8
2018-12-19T02:36:56.198Z,29.8
2018-12-19T02:37:46.302Z,29.8
2018-12-19T02:38:36.579Z,29.8
2018-12-19T02:39:26.732Z,29.8
2018-12-19T02:40:16.986Z,29.8
2018-12-19T02:41:07.319Z,29.8
2018-12-19T02:41:57.085Z,29.8
2018-12-19T02:42:47.531Z,29.8
2018-12-19T02:43:36.937Z,29.7
2018-12-19T02:44:28.029Z,29.7
2018-12-19T02:45:17.316Z,29.7
2018-12-19T02:46:07.429Z,29.7
2018-12-19T02:46:57.953Z,29.7
2018-12-19T02:47:48.298Z,29.7
2018-12-19T02:48:37.266Z,29.6
2018-12-19T02:49:27.623Z,29.7
2018-12-19T02:50:17.103Z,29.6
2018-12-19T02:51:07.974Z,29.6
2018-12-19T02:51:57.561Z,29.6
2018-12-19T02:52:47.845Z,29.6
2018-12-19T02:53:37.935Z,29.6
2018-12-19T02:54:27.958Z,29.6
2018-12-19T02:55:17.449Z,29.6
2018-12-19T02:56:08.035Z,29.6
2018-12-19T02:56:58.770Z,29.6
2018-12-19T02:57:47.611Z,29.6
2018-12-19T02:58:38.461Z,29.6
2018-12-19T02:59:28.315Z,29.6
2018-12-19T03:00:17.835Z,29.6
2018-12-19T03:01:07.567Z,29.6
2018-12-19T03:01:58.145Z,29.5
2018-12-19T03:02:48.517Z,29.5
2018-12-19T03:03:38.253Z,29.5
2018-12-19T03:04:28.471Z,29.5
2018-12-19T03:05:18.370Z,29.5
2018-12-19T03:06:07.945Z,29.5
2018-12-19T03:06:59.369Z,29.5
2018-12-19T03:07:48.067Z,29.5
2018-12-19T03:08:38.900Z,29.5
2018-12-19T03:09:27.894Z,29.4
2018-12-19T03:10:19.007Z,29.4
2018-12-19T03:11:08.802Z,29.4
2018-12-19T03:11:59.171Z,29.4
2018-12-19T03:12:49.279Z,29.4
2018-12-19T03:13:39.509Z,29.4
2018-12-19T03:14:28.767Z,29.4
2018-12-19T03:15:19.359Z,29.4
2018-12-19T03:16:08.879Z,29.4
2018-12-19T03:16:59.747Z,29.4
2018-12-19T03:17:49.522Z,29.4
2018-12-19T03:18:39.846Z,29.4
2018-12-19T03:19:29.387Z,29.4
2018-12-19T03:20:19.680Z,29.4
2018-12-19T03:21:09.516Z,29.4
2018-12-19T03:21:59.282Z,29.4
2018-12-19T03:22:50.726Z,29.3
2018-12-19T03:23:40.215Z,29.3
2018-12-19T03:24:30.044Z,29.3
2018-12-19T03:25:20.041Z,29.3
2018-12-19T03:26:10.092Z,29.3
2018-12-19T03:27:00.003Z,29.3
2018-12-19T03:27:50.213Z,29.3
2018-12-19T03:28:40.258Z,29.3
2018-12-19T03:29:30.111Z,29.3
2018-12-19T03:30:20.281Z,29.3
2018-12-19T03:31:10.974Z,29.3
2018-12-19T03:32:00.527Z,29.3
2018-12-19T03:32:51.024Z,29.3
2018-12-19T03:33:40.864Z,29.3
2018-12-19T03:34:30.206Z,29.3
2018-12-19T03:35:20.753Z,29.3
2018-12-19T03:36:11.186Z,29.2
2018-12-19T03:37:00.683Z,29.3
2018-12-19T03:37:50.645Z,29.2
2018-12-19T03:38:40.005Z,29.2
2018-12-19T03:39:30.255Z,29.2
2018-12-19T03:40:20.417Z,29.2
2018-12-19T03:41:10.937Z,29.2
2018-12-19T03:42:00.919Z,29.2
2018-12-19T03:42:51.218Z,29.2
2018-12-19T03:43:41.338Z,29.2
2018-12-19T03:44:31.672Z,29.1
2018-12-19T03:45:21.397Z,29.1
2018-12-19T03:46:10.926Z,29.1
2018-12-19T03:47:01.766Z,29.1
2018-12-19T03:47:51.842Z,29.1
2018-12-19T03:48:41.075Z,29.1
2018-12-19T03:49:31.534Z,29.1
2018-12-19T03:50:21.459Z,29.1
2018-12-19T03:51:11.282Z,29.1
2018-12-19T03:52:01.583Z,29.1
2018-12-19T03:52:52.197Z,29.1
2018-12-19T03:53:42.227Z,29.1
2018-12-19T03:54:33.886Z,29.1
2018-12-19T03:55:22.101Z,29.1
2018-12-19T03:56:11.584Z,29.1
2018-12-19T03:57:01.909Z,29.1
2018-12-19T03:57:51.999Z,29.1
2018-12-19T03:58:42.175Z,29
2018-12-19T03:59:32.768Z,29.1
2018-12-19T04:00:22.452Z,29
2018-12-19T04:01:11.716Z,29
2018-12-19T04:02:02.807Z,29
2018-12-19T04:02:52.881Z,29
2018-12-19T04:03:42.924Z,29
2018-12-19T04:04:32.545Z,29
2018-12-19T04:05:22.519Z,29
2018-12-19T04:06:12.269Z,29
2018-12-19T04:07:02.625Z,29
2018-12-19T04:07:53.259Z,29
2018-12-19T04:08:42.784Z,29
2018-12-19T04:09:33.398Z,29
2018-12-19T04:10:23.471Z,29
2018-12-19T04:11:12.942Z,28.9
2018-12-19T04:12:03.272Z,28.9
2018-12-19T04:12:53.231Z,29
2018-12-19T04:13:42.526Z,29
2018-12-19T04:14:32.620Z,29
2018-12-19T04:15:23.455Z,29
2018-12-19T04:16:13.003Z,29.1
2018-12-19T04:17:03.023Z,29.1
2018-12-19T04:17:53.629Z,29.1
2018-12-19T04:18:42.933Z,29.1
2018-12-19T04:19:32.929Z,29.1
2018-12-19T04:20:23.562Z,29.1
2018-12-19T04:21:14.101Z,29.1
2018-12-19T04:22:03.653Z,29.1
2018-12-19T04:22:53.497Z,29.1
2018-12-19T04:23:44.039Z,29.1
2018-12-19T04:24:34.089Z,29.1
2018-12-19T04:25:24.223Z,29
2018-12-19T04:26:14.192Z,29
2018-12-19T04:27:04.076Z,29.1
2018-12-19T04:27:53.748Z,29
2018-12-19T04:28:44.436Z,29
2018-12-19T04:29:34.150Z,29
2018-12-19T04:30:24.318Z,29
2018-12-19T04:31:14.526Z,29
2018-12-19T04:32:04.633Z,28.9
2018-12-19T04:32:53.946Z,28.9
2018-12-19T04:33:43.953Z,28.9
2018-12-19T04:34:34.769Z,28.9
2018-12-19T04:35:24.916Z,28.9
2018-12-19T04:36:13.855Z,28.9
2018-12-19T04:37:04.198Z,28.9
2018-12-19T04:37:54.055Z,28.9
2018-12-19T04:38:43.715Z,28.9
2018-12-19T04:39:34.933Z,28.9
2018-12-19T04:40:24.913Z,28.9
2018-12-19T04:41:15.215Z,28.9
2018-12-19T04:42:04.713Z,28.9
2018-12-19T04:42:56.264Z,28.9
2018-12-19T04:43:45.165Z,28.9
2018-12-19T04:44:35.427Z,28.9
2018-12-19T05:01:52.314Z,28.8
2018-12-19T05:02:42.658Z,28.8
2018-12-19T05:03:31.621Z,28.8
2018-12-19T05:04:22.479Z,28.8
2018-12-19T05:05:12.809Z,28.8
2018-12-19T05:06:04.535Z,28.8
2018-12-19T05:06:53.229Z,28.8
2018-12-19T05:07:43.245Z,28.7
2018-12-19T05:08:33.571Z,28.7
2018-12-19T05:09:22.835Z,28.7
2018-12-19T05:10:18.029Z,28.7
2018-12-19T05:11:03.200Z,28.7
2018-12-19T05:11:53.286Z,28.7
2018-12-19T05:12:43.579Z,28.7
2018-12-19T05:13:33.724Z,28.7
2018-12-19T05:14:22.616Z,28.7
2018-12-19T05:15:13.535Z,28.7
2018-12-19T05:16:03.604Z,28.6
2018-12-19T05:16:53.302Z,28.6
2018-12-19T05:17:44.306Z,28.6
2018-12-19T05:18:33.729Z,28.6
2018-12-19T05:19:23.815Z,28.6
2018-12-19T05:20:13.620Z,28.6
2018-12-19T05:21:03.660Z,28.6
2018-12-19T05:21:53.693Z,28.6
2018-12-19T05:22:44.262Z,28.6
2018-12-19T05:23:34.293Z,28.6
2018-12-19T05:24:23.563Z,28.6
2018-12-19T05:25:13.903Z,28.6
2018-12-19T05:26:04.488Z,28.6
2018-12-19T05:26:54.293Z,28.6
2018-12-19T05:27:44.605Z,28.6
2018-12-19T05:28:34.390Z,28.6
2018-12-19T05:29:24.165Z,28.6
2018-12-19T05:30:14.575Z,28.6
2018-12-19T05:31:04.592Z,28.6
2018-12-19T05:31:54.052Z,28.5
2018-12-19T05:32:44.935Z,28.5
2018-12-19T05:33:35.263Z,28.6
2018-12-19T05:34:25.137Z,28.5
2018-12-19T05:35:15.135Z,28.6
2018-12-19T05:36:04.070Z,28.5
2018-12-19T05:36:55.291Z,28.5
2018-12-19T05:37:44.792Z,28.5
2018-12-19T05:38:35.595Z,28.5
2018-12-19T05:39:24.844Z,28.5
2018-12-19T05:40:21.443Z,28.5
2018-12-19T05:41:04.957Z,28.5
2018-12-19T05:41:55.012Z,28.5
2018-12-19T05:42:45.372Z,28.5
2018-12-19T05:43:35.967Z,28.4
2018-12-19T05:44:25.815Z,28.5
2018-12-19T05:45:15.004Z,28.4
2018-12-19T05:46:05.867Z,28.4
2018-12-19T05:46:55.711Z,28.4
2018-12-19T05:47:45.986Z,28.4
2018-12-19T05:48:35.474Z,28.4
2018-12-19T05:49:24.984Z,28.4
2018-12-19T05:50:15.969Z,28.4
2018-12-19T05:51:05.959Z,28.4
2018-12-19T05:51:55.686Z,28.4
2018-12-19T05:52:45.212Z,28.4
2018-12-19T05:53:35.829Z,28.4
2018-12-19T05:54:25.089Z,28.4
2018-12-19T05:55:16.489Z,28.4
2018-12-19T05:56:05.979Z,28.3
2018-12-19T05:56:55.478Z,28.3
2018-12-19T05:57:46.646Z,28.3
2018-12-19T05:58:36.443Z,28.2
2018-12-19T05:59:26.504Z,28.1
2018-12-19T06:00:16.646Z,28.1
2018-12-19T06:01:06.606Z,28.1
2018-12-19T06:01:56.383Z,28.1
2018-12-19T06:02:46.738Z,28.1
2018-12-19T06:03:36.723Z,28
2018-12-19T06:04:27.078Z,27.9
2018-12-19T06:05:16.619Z,27.9
2018-12-19T06:06:06.677Z,27.9
2018-12-19T06:06:57.258Z,27.9
2018-12-19T06:07:47.973Z,27.9
2018-12-19T06:09:27.985Z,27.9
2018-12-19T06:12:47.653Z,27.8
2018-12-19T06:13:36.927Z,27.8
2018-12-19T06:14:27.024Z,27.8
2018-12-19T06:15:17.558Z,27.8
2018-12-19T06:16:06.954Z,27.8
2018-12-19T06:16:55.877Z,27.8
2018-12-19T06:17:46.200Z,27.7
2018-12-19T06:18:37.082Z,27.7
2018-12-19T06:19:27.385Z,27.7
2018-12-19T06:20:17.464Z,27.7
2018-12-19T06:21:07.173Z,27.7
2018-12-19T06:21:57.249Z,27.7
2018-12-19T06:22:47.507Z,27.6
2018-12-19T06:23:37.549Z,27.6
2018-12-19T06:24:27.586Z,27.6
2018-12-19T06:25:18.073Z,27.6
2018-12-19T06:26:08.633Z,27.6
2018-12-19T06:26:57.782Z,27.6
2018-12-19T06:27:48.669Z,27.6
2018-12-19T06:28:38.459Z,27.6
2018-12-19T06:29:27.988Z,27.6
2018-12-19T06:30:18.290Z,27.6
2018-12-19T06:31:08.081Z,27.6
2018-12-19T06:31:58.114Z,27.6
2018-12-19T06:32:48.469Z,27.6
2018-12-19T06:33:38.791Z,27.5
2018-12-19T06:34:29.109Z,27.5
2018-12-19T06:35:18.875Z,27.5
2018-12-19T06:36:08.408Z,27.5
2018-12-19T06:36:58.504Z,27.5
2018-12-19T06:37:49.074Z,27.5
2018-12-19T06:38:38.134Z,27.5
2018-12-19T06:39:29.425Z,27.4
2018-12-19T06:40:18.926Z,27.5
2018-12-19T06:41:08.738Z,27.4
2018-12-19T06:41:59.354Z,27.4
2018-12-19T06:42:49.685Z,27.5
2018-12-19T06:43:39.212Z,27.4
2018-12-19T06:44:29.308Z,27.4
2018-12-19T06:45:19.853Z,27.4
2018-12-19T06:46:09.922Z,27.4
2018-12-19T06:46:59.955Z,27.4
2018-12-19T06:47:49.747Z,27.4
2018-12-19T06:48:40.078Z,27.4
2018-12-19T06:49:30.101Z,27.4
2018-12-19T06:50:19.100Z,27.4
2018-12-19T06:51:09.715Z,27.4
2018-12-19T06:52:00.037Z,27.4
2018-12-19T06:52:49.820Z,27.4
2018-12-19T06:53:40.194Z,27.4
2018-12-19T06:54:29.985Z,27.4
2018-12-19T06:55:19.760Z,27.4
2018-12-19T06:56:10.012Z,27.4
2018-12-19T06:57:00.103Z,27.4
2018-12-19T06:57:50.425Z,27.3
2018-12-19T06:58:40.502Z,27.3
2018-12-19T06:59:30.257Z,27.3
2018-12-19T07:00:20.592Z,27.3
2018-12-19T07:01:10.156Z,27.3
2018-12-19T07:02:00.432Z,27.3
2018-12-19T07:02:50.219Z,27.3
2018-12-19T07:03:40.875Z,27.3
2018-12-19T07:04:30.846Z,27.3
2018-12-19T07:05:20.976Z,27.3
2018-12-19T07:06:10.446Z,27.3
2018-12-19T07:07:01.018Z,27.3
2018-12-19T07:07:50.856Z,27.3
2018-12-19T07:08:43.002Z,27.3
2018-12-19T07:09:30.946Z,27.3
2018-12-19T07:10:21.258Z,27.3
2018-12-19T07:11:11.356Z,27.3
2018-12-19T07:12:00.583Z,27.3
2018-12-19T07:12:51.156Z,27.3
2018-12-19T07:13:41.475Z,27.3
2018-12-19T07:14:31.011Z,27.3
2018-12-19T07:15:21.903Z,27.3
2018-12-19T07:16:11.440Z,27.3
2018-12-19T07:17:01.727Z,27.3
2018-12-19T07:17:51.765Z,27.3
2018-12-19T07:18:41.533Z,27.2
2018-12-19T07:19:31.623Z,27.2
2018-12-19T07:20:21.653Z,27.3
2018-12-19T07:21:11.168Z,27.2
2018-12-19T07:22:01.834Z,27.2
2018-12-19T07:22:51.528Z,27.2
2018-12-19T07:23:42.150Z,27.2
2018-12-19T07:24:32.220Z,27.2
2018-12-19T07:25:22.545Z,27.2
2018-12-19T07:26:12.311Z,27.2
2018-12-19T07:27:02.448Z,27.2
2018-12-19T07:27:52.449Z,27.2
2018-12-19T07:28:42.207Z,27.2
2018-12-19T07:29:32.303Z,27.1
2018-12-19T07:30:22.333Z,27.1
2018-12-19T07:31:12.736Z,27.1
2018-12-19T07:32:02.447Z,27.2
2018-12-19T07:32:52.770Z,27.1
2018-12-19T07:33:44.127Z,27.1
2018-12-19T07:34:32.619Z,27.2
2018-12-19T07:35:22.454Z,27.1
2018-12-19T07:36:12.772Z,27.1
2018-12-19T07:37:02.795Z,27.1
2018-12-19T07:37:53.404Z,27.1
2018-12-19T07:38:42.889Z,27.1
2018-12-19T07:39:32.954Z,27.1
2018-12-19T07:40:23.559Z,27.1
2018-12-19T07:41:13.397Z,27.1
2018-12-19T07:42:03.150Z,27.1
2018-12-19T07:42:53.447Z,27.1
2018-12-19T07:43:43.506Z,27.1
2018-12-19T07:44:33.339Z,27.1
2018-12-19T07:45:23.914Z,27.1
2018-12-19T07:46:20.726Z,27.1
2018-12-19T07:47:03.839Z,27.1
2018-12-19T07:47:53.241Z,27.1
2018-12-19T07:48:43.081Z,27.1
2018-12-19T07:49:33.912Z,27.1
2018-12-19T07:50:23.944Z,27.1
2018-12-19T07:51:13.744Z,27.1
2018-12-19T07:52:03.796Z,27.1
2018-12-19T07:52:54.194Z,27
2018-12-19T07:53:44.456Z,27.1
2018-12-19T07:54:34.006Z,27
2018-12-19T07:55:24.658Z,27.1
2018-12-19T07:56:14.081Z,27.1
2018-12-19T07:57:04.425Z,27
2018-12-19T07:57:54.471Z,27
2018-12-19T07:58:44.029Z,27.1
2018-12-19T07:59:34.575Z,27
2018-12-19T08:00:30.619Z,27
2018-12-19T08:01:14.780Z,27
2018-12-19T08:02:04.756Z,27
2018-12-19T08:02:54.776Z,27
2018-12-19T08:03:45.119Z,27
2018-12-19T08:04:34.071Z,27
2018-12-19T08:05:31.293Z,27
2018-12-19T08:06:15.370Z,27
2018-12-19T08:07:05.423Z,27
2018-12-19T08:07:54.640Z,27
2018-12-19T08:08:45.181Z,26.9
2018-12-19T08:09:35.245Z,27
2018-12-19T08:10:25.641Z,26.9
2018-12-19T08:11:15.609Z,27
2018-12-19T08:12:05.420Z,26.9
2018-12-19T08:12:54.937Z,26.9
2018-12-19T08:13:45.282Z,26.9
2018-12-19T08:14:35.592Z,26.9
2018-12-19T08:15:25.382Z,26.9
2018-12-19T08:16:15.467Z,26.9
2018-12-19T08:17:05.193Z,26.9
2018-12-19T08:17:56.044Z,26.9
2018-12-19T08:18:45.322Z,26.9
2018-12-19T08:19:35.928Z,26.9
2018-12-19T08:20:25.979Z,26.9
2018-12-19T08:21:15.472Z,26.9
2018-12-19T08:22:06.139Z,26.9
2018-12-19T08:22:56.417Z,26.9
2018-12-19T08:23:45.931Z,26.9
2018-12-19T08:24:36.051Z,26.9
2018-12-19T08:25:25.776Z,26.9
2018-12-19T08:26:16.388Z,26.9
2018-12-19T08:27:05.876Z,26.9
2018-12-19T08:27:57.498Z,26.9
2018-12-19T08:28:46.536Z,26.9
2018-12-19T08:29:36.326Z,26.9
2018-12-19T08:30:26.098Z,26.9
2018-12-19T08:31:16.421Z,26.9
2018-12-19T08:32:06.729Z,26.9
2018-12-19T08:32:56.244Z,26.9
2018-12-19T08:33:46.606Z,26.9
2018-12-19T08:34:37.203Z,26.9
2018-12-19T08:35:26.989Z,26.8
2018-12-19T08:36:17.341Z,26.9
2018-12-19T08:37:07.081Z,26.8
2018-12-19T08:37:57.428Z,26.8
2018-12-19T08:38:47.048Z,26.8
2018-12-19T08:39:37.003Z,26.8
2018-12-19T08:40:25.957Z,26.8
2018-12-19T08:41:17.381Z,26.8
2018-12-19T08:42:06.893Z,26.8
2018-12-19T08:42:57.471Z,26.8
2018-12-19T08:43:47.265Z,26.8
2018-12-19T08:44:37.935Z,26.8
2018-12-19T08:45:28.008Z,26.8
2018-12-19T08:46:20.484Z,26.8
2018-12-19T08:47:07.785Z,26.8
2018-12-19T08:47:57.848Z,26.8
2018-12-19T08:48:47.888Z,26.8
2018-12-19T08:49:37.950Z,26.8
2018-12-19T08:50:28.286Z,26.8
2018-12-19T08:51:17.237Z,26.8
2018-12-19T08:52:07.580Z,26.8
2018-12-19T08:52:58.462Z,26.8
2018-12-19T08:53:47.655Z,26.8
2018-12-19T08:54:38.600Z,26.8
2018-12-19T08:55:28.494Z,26.8
2018-12-19T08:56:19.794Z,26.8
2018-12-19T08:57:10.324Z,26.8
2018-12-19T08:57:58.948Z,26.8
2018-12-19T08:58:49.894Z,26.8
2018-12-19T08:59:40.280Z,26.8
2018-12-19T09:00:29.447Z,26.8
2018-12-19T09:16:13.982Z,26.7
2018-12-19T09:17:04.553Z,26.7
2018-12-19T09:17:54.951Z,26.6
2018-12-19T09:18:44.679Z,26.7
2018-12-19T09:19:34.442Z,26.7
2018-12-19T09:20:24.769Z,26.7
2018-12-19T09:21:15.386Z,26.6
2018-12-19T09:22:04.338Z,26.7
2018-12-19T09:22:54.953Z,26.6
2018-12-19T09:23:44.962Z,26.7
2018-12-19T09:24:35.046Z,26.6
2018-12-19T09:25:24.845Z,26.7
2018-12-19T09:26:15.773Z,26.6
2018-12-19T09:27:05.241Z,26.6
2018-12-19T09:27:55.273Z,26.6
2018-12-19T09:28:45.341Z,26.6
2018-12-19T09:29:35.110Z,26.6
2018-12-19T09:30:25.448Z,26.6
2018-12-19T09:31:14.660Z,26.6
2018-12-19T09:32:05.605Z,26.6
2018-12-19T09:32:57.317Z,26.6
2018-12-19T09:33:45.112Z,26.6
2018-12-19T09:34:34.630Z,26.6
2018-12-19T09:35:25.522Z,26.6
2018-12-19T09:36:15.869Z,26.6
2018-12-19T09:37:05.900Z,26.6
2018-12-19T09:37:56.037Z,26.6
2018-12-19T09:38:46.590Z,26.6
2018-12-19T09:39:35.802Z,26.6
2018-12-19T09:40:26.127Z,26.6
2018-12-19T09:41:18.826Z,26.6
2018-12-19T09:42:06.266Z,26.6
2018-12-19T09:42:56.307Z,26.6
2018-12-19T09:43:46.439Z,26.6
2018-12-19T09:44:36.149Z,26.6
2018-12-19T09:45:26.809Z,26.6
2018-12-19T09:46:16.787Z,26.6
2018-12-19T09:47:06.323Z,26.6
2018-12-19T09:47:56.146Z,26.6
2018-12-19T09:48:45.944Z,26.6
2018-12-19T09:49:36.751Z,26.6
2018-12-19T09:50:25.773Z,26.6
2018-12-19T09:51:16.038Z,26.6
2018-12-19T09:52:06.936Z,26.6
2018-12-19T09:52:56.733Z,26.6
2018-12-19T09:53:47.052Z,26.6
2018-12-19T09:54:36.878Z,26.6
2018-12-19T09:55:26.321Z,26.6
2018-12-19T09:56:17.228Z,26.6
2018-12-19T09:57:06.777Z,26.6
2018-12-19T09:57:57.069Z,26.5
2018-12-19T09:58:47.694Z,26.5
2018-12-19T09:59:37.151Z,26.5
2018-12-19T10:00:26.677Z,26.5
2018-12-19T10:01:16.729Z,26.5
2018-12-19T10:02:06.591Z,26.6
2018-12-19T10:02:57.687Z,26.5
2018-12-19T10:03:48.281Z,26.5
2018-12-19T10:04:37.499Z,26.5
2018-12-19T10:05:28.122Z,26.5
2018-12-19T10:06:17.341Z,26.5
2018-12-19T10:07:07.959Z,26.5
2018-12-19T10:07:58.033Z,26.5
2018-12-19T10:08:48.643Z,26.5
2018-12-19T10:09:37.568Z,26.5
2018-12-19T10:10:27.905Z,26.5
2018-12-19T10:11:24.605Z,26.5
2018-12-19T10:12:07.735Z,26.5
2018-12-19T10:12:58.375Z,26.5
2018-12-19T10:13:48.124Z,26.5
2018-12-19T10:14:38.733Z,26.5
2018-12-19T10:15:28.238Z,26.5
2018-12-19T10:16:18.023Z,26.5
2018-12-19T10:17:08.639Z,26.5
2018-12-19T10:17:58.680Z,26.4
2018-12-19T10:18:48.798Z,32.5
2018-12-19T10:19:38.313Z,37.4
2018-12-19T10:20:28.897Z,38
2018-12-19T10:21:19.195Z,42.2
2018-12-19T10:22:09.308Z,45.1
2018-12-19T10:22:59.117Z,46
2018-12-19T10:23:48.265Z,45.3
2018-12-19T10:24:39.472Z,44.4
2018-12-19T10:25:28.947Z,43.7
2018-12-19T10:26:18.997Z,43.3
2018-12-19T10:27:09.330Z,42.9
2018-12-19T10:27:59.171Z,42.6
2018-12-19T10:28:49.707Z,42.3
2018-12-19T10:29:39.220Z,41.9
2018-12-19T10:30:29.824Z,41.5
2018-12-19T10:31:19.604Z,41.1
2018-12-19T10:32:09.667Z,40.8
2018-12-19T10:32:59.784Z,41.1
2018-12-19T10:33:49.776Z,43.7
2018-12-19T10:34:40.109Z,43.6
2018-12-19T10:35:29.367Z,45.6
2018-12-19T10:36:19.175Z,47.4
2018-12-19T10:37:11.330Z,48.4
2018-12-19T10:37:59.623Z,48.4
2018-12-19T10:38:50.471Z,48.2
2018-12-19T10:39:39.382Z,48.1
2018-12-19T10:40:29.688Z,48.1
2018-12-19T10:41:27.419Z,48.3
2018-12-19T10:42:10.076Z,48.6
2018-12-19T10:43:00.394Z,48.8
2018-12-19T10:43:50.454Z,49.1
2018-12-19T10:44:39.964Z,49.3
2018-12-19T10:45:30.921Z,49.4
2018-12-19T10:46:20.389Z,49.4
2018-12-19T10:47:11.026Z,49.4
2018-12-19T10:48:00.488Z,49.6
2018-12-19T10:48:50.235Z,49.6
2018-12-19T10:49:40.601Z,49.8
2018-12-19T10:50:30.643Z,49.9
2018-12-19T10:51:20.419Z,50
2018-12-19T10:52:10.483Z,50.1
2018-12-19T10:53:00.814Z,50.2
2018-12-19T10:53:50.908Z,50.3
2018-12-19T10:54:41.506Z,50.4
2018-12-19T10:55:31.283Z,50.4
2018-12-19T10:56:23.011Z,50.5
2018-12-19T10:57:11.178Z,50.6
2018-12-19T10:58:00.946Z,50.7
2018-12-19T10:58:51.208Z,50.8
2018-12-19T10:59:41.281Z,50.9
2018-12-19T11:00:31.626Z,51
2018-12-19T11:01:21.379Z,51.1
2018-12-19T11:02:11.283Z,51.1
2018-12-19T11:03:01.765Z,51.3
2018-12-19T11:03:51.811Z,51.3
2018-12-19T11:04:41.602Z,51.4
2018-12-19T11:05:31.683Z,51.4
2018-12-19T11:06:22.013Z,51.6
2018-12-19T11:07:11.778Z,51.6
2018-12-19T11:08:02.121Z,51.7
2018-12-19T11:08:52.220Z,51.8
2018-12-19T11:09:42.221Z,51.8
2018-12-19T11:10:32.006Z,51.9
2018-12-19T11:12:12.485Z,52.1
2018-12-19T11:13:02.463Z,52.1
2018-12-19T11:13:51.975Z,52.2
2018-12-19T11:14:42.012Z,52.3
2018-12-19T11:15:32.062Z,52.3
2018-12-19T11:17:12.757Z,52.4
2018-12-19T11:18:02.808Z,52.4
2018-12-19T11:18:52.342Z,52.5
2018-12-19T11:19:42.708Z,52.6
2018-12-19T11:20:32.692Z,52.6
2018-12-19T11:21:22.777Z,52.6
2018-12-19T11:22:14.040Z,52.7
2018-12-19T11:23:03.157Z,52.7
2018-12-19T11:23:52.357Z,52.8
2018-12-19T11:24:43.559Z,52.8
2018-12-19T11:25:33.042Z,52.8
2018-12-19T11:26:22.815Z,52.9
2018-12-19T11:27:13.481Z,52.9
2018-12-19T11:28:03.182Z,52.9
2018-12-19T11:28:53.004Z,52.9
2018-12-19T11:29:43.414Z,52.9
2018-12-19T11:30:33.104Z,52.9
2018-12-19T11:31:24.078Z,52.9
2018-12-19T11:32:13.507Z,53
2018-12-19T11:33:03.826Z,53.1
2018-12-19T11:33:53.326Z,53
2018-12-19T11:34:43.746Z,53.1
2018-12-19T11:35:33.164Z,53.1
2018-12-19T11:36:24.071Z,53.1
2018-12-19T11:37:13.639Z,53.1
2018-12-19T11:38:04.190Z,53.1
2018-12-19T11:38:54.026Z,53.1
2018-12-19T11:39:43.141Z,53.1
2018-12-19T11:40:33.777Z,53.1
2018-12-19T11:41:24.141Z,53.2
2018-12-19T11:42:14.196Z,53.2
2018-12-19T11:43:04.230Z,53.1
2018-12-19T11:43:54.860Z,53.2
2018-12-19T11:44:44.616Z,53.2
2018-12-19T11:45:35.273Z,53.2
2018-12-19T11:46:25.033Z,53.2
2018-12-19T11:47:14.263Z,53.2
2018-12-19T11:48:05.400Z,53.2
2018-12-19T11:48:54.660Z,53.2
2018-12-19T11:49:45.425Z,53.3
2018-12-19T11:50:35.086Z,53.2
2018-12-19T11:51:24.590Z,53.3
2018-12-19T11:52:15.160Z,53.3
2018-12-19T11:53:05.211Z,53.3
2018-12-19T11:53:55.855Z,53.3
2018-12-19T11:54:45.398Z,53.3
2018-12-19T11:55:35.673Z,53.2
2018-12-19T11:56:25.243Z,53.3
2018-12-19T11:57:15.490Z,53.2
2018-12-19T11:58:05.550Z,53.2
2018-12-19T11:58:55.857Z,53.2
2018-12-19T11:59:45.389Z,53.2
2018-12-19T12:00:35.720Z,53.2
2018-12-19T12:01:25.060Z,53.2
2018-12-19T12:02:15.299Z,53.2
2018-12-19T12:03:06.180Z,53.2